Terminal Aerodrome Forecast
Issued by NWS Albany, NY

Home | Current Version | Previous Version | Text Only | Print | Product List | Glossary On
Versions: 1 2 3 4 5 6 7 8 9 10 11 12 13 14 15 16
000
FTUS41 KALY 172326
TAFGFL
TAF
KGFL 172326Z 1800/1824 00000KT P6SM BKN150 OVC200
     FM180800 00000KT 4SM -SN BR OVC020 PROB30 1809/1812 2SM -SN BR
      OVC015
     FM181300 18003KT P6SM VCSH OVC020
     FM182000 19004KT P6SM OVC015=

USA.gov is the U.S. government's official web portal to all federal, state and local government web resources and services.